createdAt,value
2019-02-22T15:33:45.194Z,1.20
2019-02-22T15:34:48.879Z,1.20
2019-02-22T15:35:52.519Z,1.20
2019-02-22T15:36:56.179Z,1.10
2019-02-22T15:42:34.827Z,1.10
2019-02-22T15:47:38.483Z,1.00
2019-02-22T15:52:42.170Z,0.90
2019-02-22T15:57:45.847Z,0.90
2019-02-22T16:02:49.500Z,0.90
2019-02-22T16:07:53.211Z,0.70
2019-02-22T16:12:56.902Z,0.70
2019-02-22T16:18:00.591Z,0.60
2019-02-22T16:23:04.295Z,0.50
2019-02-22T16:28:08.014Z,0.30
2019-02-22T16:33:11.890Z,0.30
2019-02-22T16:38:16.207Z,0.30
2019-02-22T16:43:19.872Z,0.10
2019-02-22T16:48:23.569Z,0.10
2019-02-22T16:53:27.297Z,0.10
2019-02-22T16:58:31.019Z,0.00
2019-02-22T17:03:34.772Z,-0.10
2019-02-22T17:08:38.610Z,-0.10
2019-02-22T17:13:42.326Z,-0.20
2019-02-22T17:18:46.027Z,-0.30
2019-02-22T17:23:49.714Z,-0.30
2019-02-22T17:28:53.417Z,-0.40
2019-02-22T17:33:57.090Z,-0.40
2019-02-22T17:39:00.755Z,-0.50
2019-02-22T17:44:04.425Z,-0.50
2019-02-22T17:49:08.087Z,-0.50
2019-02-22T17:54:12.193Z,-0.60
2019-02-22T17:59:15.845Z,-0.60
2019-02-22T18:04:19.642Z,-0.70
2019-02-22T18:09:23.419Z,-0.70
2019-02-22T18:14:27.114Z,-0.80
2019-02-22T18:19:31.958Z,-0.80
2019-02-22T18:24:35.819Z,-0.80
2019-02-22T18:29:39.519Z,-1.00
2019-02-22T18:34:43.293Z,-0.90
2019-02-22T18:39:46.998Z,-1.00
2019-02-22T18:44:50.696Z,-1.00
2019-02-22T18:49:54.511Z,-1.10
2019-02-22T18:54:58.236Z,-1.20
2019-02-22T19:00:01.968Z,-1.10
2019-02-22T19:05:07.380Z,-1.20
2019-02-22T19:10:13.560Z,-1.10
2019-02-22T19:15:17.230Z,-1.20
2019-02-22T19:20:21.450Z,-1.20
2019-02-22T19:25:25.190Z,-1.40
2019-02-22T19:30:28.922Z,-1.50
2019-02-22T19:35:32.676Z,-1.50
2019-02-22T19:40:36.468Z,-1.50
2019-02-22T19:45:40.193Z,-1.50
2019-02-22T19:50:43.934Z,3.10
2019-02-22T19:55:47.651Z,12.70
2019-02-22T20:00:51.377Z,14.60
2019-02-22T20:05:55.107Z,15.10
2019-02-22T20:10:58.942Z,15.60
2019-02-22T20:16:02.772Z,15.80
2019-02-22T20:21:06.588Z,15.80
2019-02-22T20:26:10.515Z,18.40
2019-02-22T20:31:20.182Z,19.50
2019-02-22T20:36:28.114Z,20.00
2019-02-22T20:41:25.011Z,20.00
2019-02-22T20:46:28.721Z,20.10
2019-02-22T20:51:32.709Z,20.30
2019-02-22T20:56:36.380Z,20.60
2019-02-22T21:01:40.157Z,20.80
2019-02-22T21:06:44.091Z,20.90
2019-02-22T21:11:48.110Z,20.90
2019-02-22T21:16:51.827Z,20.80
2019-02-22T21:21:55.534Z,20.70
2019-02-22T21:26:59.253Z,20.70
2019-02-22T21:32:03.250Z,20.60
2019-02-22T21:37:07.004Z,20.50
2019-02-22T21:42:19.864Z,20.40
2019-02-22T21:47:16.081Z,20.40
2019-02-22T21:52:19.817Z,20.50
2019-02-22T21:57:23.524Z,20.50
2019-02-22T22:02:27.255Z,20.40
2019-02-22T22:07:30.977Z,20.30
2019-02-22T22:12:34.650Z,20.30
2019-02-22T22:17:38.429Z,20.20
2019-02-22T22:22:42.159Z,20.10
2019-02-22T22:27:45.859Z,20.10
2019-02-22T22:32:52.277Z,20.10
2019-02-22T22:37:55.063Z,20.20
2019-02-22T22:42:58.770Z,20.50
2019-02-22T22:48:02.422Z,20.70
2019-02-22T22:53:06.080Z,20.90
2019-02-22T22:58:09.737Z,21.00
2019-02-22T23:03:13.465Z,21.10
2019-02-22T23:08:17.169Z,21.00
2019-02-22T23:13:20.866Z,20.90
2019-02-22T23:18:24.537Z,20.80
2019-02-22T23:23:28.355Z,20.70
2019-02-22T23:28:32.055Z,20.60
2019-02-22T23:33:35.709Z,20.50
2019-02-22T23:38:39.606Z,20.30
2019-02-22T23:43:43.722Z,20.20
2019-02-22T23:48:48.048Z,20.10
2019-02-22T23:53:51.779Z,20.00
2019-02-22T23:58:55.441Z,20.00
